Wenatchee, WA

4:50 AM PST on December 18, 2014 (GMT -0800)
3rd and Elliott | Change Station
CLOSE
Current Station
Personal Weather Station
Location: Wenatchee, WA
Elevation: 787 ft
Nearby Weather Stations
Active Advisory: Air Stagnation Advisory

Elev 787 ft 47.43 °N, 120.34 °W | Updated 8 seconds ago

Overcast
Overcast
36.7 °F
Feels Like 37 °F
N
0.0
Wind Variable Wind from North
Gusts 0.0 mph

Today
High -- | Low -- °F
--% Chance of Precip.
Yesterday
High -- | Low -- °F
Precip. -- in
7:44 AM 4:11 PM
Waning Crescent, 15% visible
Pressure 30.02 in
Visibility 5.0 miles
Clouds Overcast 2200 ft
Windchill 37 °F
Dew Point 30 °F
Humidity 75%
Rainfall 0.00 in
Snow Depth Not available.
UV 0 out of 12
Pollen .40 out of 12
Air Quality Not available.
Flu Activity Not available.
METAR KEAT 181155Z AUTO 00000KT 5SM BR OVC022 02/01 A2999 RMK AO2 SLP164 70019 T00220011 10028 20022 53005

More Conditions Fewer Conditions

Pressure 30.02 in
Visibility 5.0 miles
Clouds Overcast 2200 ft
Windchill 37 °F
Dew Point 30 °F
Humidity 75%
Rainfall 0.00 in
Snow Depth Not available.
UV 0 out of 12
Pollen .40 out of 12
Air Quality Not available.
Flu Activity Not available.
METAR KEAT 181155Z AUTO 00000KT 5SM BR OVC022 02/01 A2999 RMK AO2 SLP164 70019 T00220011 10028 20022 53005

More Conditions Fewer Conditions

10-Day Weather Forecast

Almanac

Astronomy

Dec. 18, 2014 Rise Set
Actual Time
Civil Twilight
Nautical Twilight
Astronomical Twilight
Moon
Length of Visible Light
Length of Day
Tomorrow will be .
, % of the Moon is Illuminated

Today's Extremes

State Highs State Lows

Community

WunderPhotos

Upload Photos

1,778,923 photos uploaded!

WunderBlogs® & News

Nearby

Air Quality

  Air Quality AQ Index Pollutant
Not available.

Snow Depth

Station Depth Elevation

Earthquake Activity

City Distance Mag. Time & Date
Minimum magnitude displayed is 2.5.

Coastal Water Temperatures

Place Temperature

Nearby Weather Stations